Impacts METAR Board
IDs:

KSRQ - Sarasota-Bradenton I, FL, US

Updated at: 2000 UTC 21 Sep 2021
Potential Impact None Slight Moderate High
Time 21/08Z 21/09Z 21/10Z 21/11Z 21/12Z 21/13Z 21/14Z 21/15Z 21/16Z 21/17Z 21/18Z 21/19Z 21/20Z
Temp74 74 74 74 75 77 80 84 86 87 87 88 88
Dewpt72 72 71 72 73 74 73 75 74 73 75 74 75
Altim29.96 29.97 29.98 30.00 30.02 30.03 30.05 30.05 30.05 30.04 30.01 29.99 29.97
VIS10 10 10 10 10 10 10 10 10 10 10 10 10
CIG-- -- -- -- -- -- -- -- -- -- -- -- --
CoverCLRCLRCLRCLRCLRCLRCLRCLRCLRCLRFEWCLRCLR
FltCatVFRVFRVFRVFRVFRVFRVFRVFRVFRVFRVFRVFRVFR
WX--------------------------
WDir01101008001001000250270280280290
WSpd0 3 4 3 0 4 4 0 7 9 9 11 12
WGst-- -- -- -- -- -- -- -- -- 17 -- -- --
Raw hourly METARs
KSRQ 210753Z AUTO 00000KT 10SM CLR 23/22 A2996 RMK AO2 SLP144 T02330222
KSRQ 210853Z AUTO 11003KT 10SM CLR 23/22 A2997 RMK AO2 SLP147 T02330222 55011
KSRQ 210953Z 10004KT 10SM CLR 23/22 A2998 RMK AO2 SLP152 T02330217
KSRQ 211053Z 08003KT 10SM CLR 23/22 A3000 RMK AO2 SLP156 T02330222
KSRQ 211153Z 00000KT 10SM CLR 24/23 A3002 RMK AO2 SLP165 T02390228 10239 20233 53018
KSRQ 211253Z 10004KT 10SM CLR 25/23 A3003 RMK AO2 SLP166 T02500233
KSRQ 211353Z 10004KT 10SM CLR 27/23 A3005 RMK AO2 SLP173 T02670228
KSRQ 211453Z 00000KT 10SM CLR 29/24 A3005 RMK AO2 SLP176 T02890239 53011
KSRQ 211553Z 25007KT 10SM CLR 30/23 A3005 RMK AO2 SLP176 T03000233
KSRQ 211653Z 27009G17KT 10SM CLR 31/23 A3004 RMK AO2 SLP170 T03060228
KSRQ 211753Z 28009KT 10SM FEW029 31/24 A3001 RMK AO2 SLP163 T03060239 10311 20239 58014
KSRQ 211853Z 28011KT 10SM CLR 31/23 A2999 RMK AO2 SLP155 T03110233
KSRQ 211953Z 29012KT 10SM CLR 31/24 A2997 RMK AO2 LTG DSNT E SLP149 T03110239



Page loaded:  20:13 UTC  |   01:13 PM Pacific  |   02:13 PM Mountain  |   03:13 PM Central  |   04:13 PM Eastern

 

ADVISORIES

FORECASTS

FORECASTS

OBSERVATIONS

USER TOOLS

ABOUT US